sensor_id;sensor_type;location;lat;lon;timestamp;pressure;altitude;pressure_sealevel;temperature;humidity
25080;BME280;13071;48.868;9.996;2022-11-21T00:00:53;95702.78;;;4.50;100.00
25080;BME280;13071;48.868;9.996;2022-11-21T00:03:20;95713.03;;;4.57;100.00
25080;BME280;13071;48.868;9.996;2022-11-21T00:05:49;95697.41;;;4.42;100.00
25080;BME280;13071;48.868;9.996;2022-11-21T00:08:18;95701.69;;;4.60;100.00
25080;BME280;13071;48.868;9.996;2022-11-21T00:10:45;95702.78;;;4.59;100.00
25080;BME280;13071;48.868;9.996;2022-11-21T00:13:14;95700.75;;;4.64;100.00
25080;BME280;13071;48.868;9.996;2022-11-21T00:15:42;95699.00;;;4.60;100.00
25080;BME280;13071;48.868;9.996;2022-11-21T00:18:09;95687.69;;;4.63;100.00
25080;BME280;13071;48.868;9.996;2022-11-21T00:20:37;95689.25;;;4.55;100.00
25080;BME280;13071;48.868;9.996;2022-11-21T00:23:04;95682.94;;;4.43;100.00
25080;BME280;13071;48.868;9.996;2022-11-21T00:25:31;95688.13;;;4.48;100.00
25080;BME280;13071;48.868;9.996;2022-11-21T00:27:57;95683.06;;;4.38;100.00
25080;BME280;13071;48.868;9.996;2022-11-21T00:30:26;95682.44;;;4.41;100.00
25080;BME280;13071;48.868;9.996;2022-11-21T00:32:52;95670.47;;;4.38;100.00
25080;BME280;13071;48.868;9.996;2022-11-21T00:35:19;95675.97;;;4.33;100.00
25080;BME280;13071;48.868;9.996;2022-11-21T00:37:46;95670.03;;;4.53;100.00
25080;BME280;13071;48.868;9.996;2022-11-21T00:40:15;95662.44;;;4.47;100.00
25080;BME280;13071;48.868;9.996;2022-11-21T00:42:42;95666.06;;;4.59;100.00
25080;BME280;13071;48.868;9.996;2022-11-21T00:45:09;95656.63;;;4.53;100.00
25080;BME280;13071;48.868;9.996;2022-11-21T00:47:37;95659.91;;;4.50;100.00
25080;BME280;13071;48.868;9.996;2022-11-21T00:50:04;95653.94;;;4.62;100.00
25080;BME280;13071;48.868;9.996;2022-11-21T00:52:31;95652.22;;;4.57;100.00
25080;BME280;13071;48.868;9.996;2022-11-21T00:54:58;95636.75;;;4.54;100.00
25080;BME280;13071;48.868;9.996;2022-11-21T00:57:24;95640.22;;;4.55;100.00
25080;BME280;13071;48.868;9.996;2022-11-21T00:59:51;95638.97;;;4.52;100.00
25080;BME280;13071;48.868;9.996;2022-11-21T01:02:17;95634.88;;;4.63;100.00
25080;BME280;13071;48.868;9.996;2022-11-21T01:04:45;95629.97;;;4.65;100.00
25080;BME280;13071;48.868;9.996;2022-11-21T01:07:12;95626.84;;;4.63;100.00
25080;BME280;13071;48.868;9.996;2022-11-21T01:09:39;95627.31;;;4.57;100.00
25080;BME280;13071;48.868;9.996;2022-11-21T01:12:06;95630.91;;;4.61;100.00
25080;BME280;13071;48.868;9.996;2022-11-21T01:14:32;95626.84;;;4.63;100.00
25080;BME280;13071;48.868;9.996;2022-11-21T01:16:59;95630.28;;;4.64;100.00
25080;BME280;13071;48.868;9.996;2022-11-21T01:19:25;95639.44;;;4.63;100.00
25080;BME280;13071;48.868;9.996;2022-11-21T01:21:53;95631.56;;;4.58;100.00
25080;BME280;13071;48.868;9.996;2022-11-21T01:24:20;95629.97;;;4.57;100.00
25080;BME280;13071;48.868;9.996;2022-11-21T01:26:47;95625.09;;;4.42;100.00
25080;BME280;13071;48.868;9.996;2022-11-21T01:29:15;95622.09;;;4.43;100.00
25080;BME280;13071;48.868;9.996;2022-11-21T01:31:42;95615.94;;;4.43;100.00
25080;BME280;13071;48.868;9.996;2022-11-21T01:34:08;95616.41;;;4.27;100.00
25080;BME280;13071;48.868;9.996;2022-11-21T01:36:35;95622.72;;;4.31;100.00
25080;BME280;13071;48.868;9.996;2022-11-21T01:39:05;95615.47;;;4.41;100.00
25080;BME280;13071;48.868;9.996;2022-11-21T01:41:34;95615.47;;;4.32;100.00
25080;BME280;13071;48.868;9.996;2022-11-21T01:44:05;95610.59;;;4.43;100.00
25080;BME280;13071;48.868;9.996;2022-11-21T01:46:35;95601.78;;;4.42;100.00
25080;BME280;13071;48.868;9.996;2022-11-21T01:49:03;95603.81;;;4.37;100.00
25080;BME280;13071;48.868;9.996;2022-11-21T01:51:34;95594.03;;;4.41;100.00
25080;BME280;13071;48.868;9.996;2022-11-21T01:54:07;95595.13;;;4.31;100.00
25080;BME280;13071;48.868;9.996;2022-11-21T01:56:40;95588.53;;;4.28;100.00
25080;BME280;13071;48.868;9.996;2022-11-21T01:59:14;95578.28;;;4.30;100.00
25080;BME280;13071;48.868;9.996;2022-11-21T02:01:43;95578.44;;;4.25;100.00
25080;BME280;13071;48.868;9.996;2022-11-21T02:04:12;95580.50;;;4.28;100.00
25080;BME280;13071;48.868;9.996;2022-11-21T02:06:40;95575.13;;;4.20;100.00
25080;BME280;13071;48.868;9.996;2022-11-21T02:09:08;95583.34;;;4.23;100.00
25080;BME280;13071;48.868;9.996;2022-11-21T02:11:37;95587.56;;;4.16;100.00
25080;BME280;13071;48.868;9.996;2022-11-21T02:14:05;95600.00;;;4.12;100.00
25080;BME280;13071;48.868;9.996;2022-11-21T02:16:32;95592.47;;;4.22;100.00
25080;BME280;13071;48.868;9.996;2022-11-21T02:19:00;95592.91;;;4.16;100.00
25080;BME280;13071;48.868;9.996;2022-11-21T02:21:38;95591.81;;;4.17;100.00
25080;BME280;13071;48.868;9.996;2022-11-21T02:24:13;95605.69;;;4.19;100.00
25080;BME280;13071;48.868;9.996;2022-11-21T02:26:43;95602.09;;;4.23;100.00
25080;BME280;13071;48.868;9.996;2022-11-21T02:29:12;95596.69;;;4.15;100.00
25080;BME280;13071;48.868;9.996;2022-11-21T02:31:39;95595.16;;;4.22;100.00
25080;BME280;13071;48.868;9.996;2022-11-21T02:34:05;95603.47;;;4.21;100.00
25080;BME280;13071;48.868;9.996;2022-11-21T02:36:43;95609.44;;;4.01;100.00
25080;BME280;13071;48.868;9.996;2022-11-21T02:39:15;95607.41;;;4.15;100.00
25080;BME280;13071;48.868;9.996;2022-11-21T02:41:49;95613.09;;;4.13;100.00
25080;BME280;13071;48.868;9.996;2022-11-21T02:44:21;95606.31;;;4.16;100.00
25080;BME280;13071;48.868;9.996;2022-11-21T02:46:50;95609.47;;;4.09;100.00
25080;BME280;13071;48.868;9.996;2022-11-21T02:49:23;95609.78;;;3.99;100.00
25080;BME280;13071;48.868;9.996;2022-11-21T02:51:51;95603.91;;;3.88;100.00
25080;BME280;13071;48.868;9.996;2022-11-21T02:54:18;95593.53;;;3.96;100.00
25080;BME280;13071;48.868;9.996;2022-11-21T02:56:46;95601.41;;;3.92;100.00
25080;BME280;13071;48.868;9.996;2022-11-21T02:59:12;95590.38;;;3.94;100.00
25080;BME280;13071;48.868;9.996;2022-11-21T03:01:39;95588.31;;;3.90;100.00
25080;BME280;13071;48.868;9.996;2022-11-21T03:04:06;95595.25;;;3.83;100.00
25080;BME280;13071;48.868;9.996;2022-11-21T03:06:32;95590.97;;;3.82;100.00
25080;BME280;13071;48.868;9.996;2022-11-21T03:08:59;95594.59;;;3.77;100.00
25080;BME280;13071;48.868;9.996;2022-11-21T03:11:25;95584.69;;;3.78;100.00
25080;BME280;13071;48.868;9.996;2022-11-21T03:13:53;95592.56;;;3.74;100.00
25080;BME280;13071;48.868;9.996;2022-11-21T03:16:20;95590.03;;;3.86;100.00
25080;BME280;13071;48.868;9.996;2022-11-21T03:18:47;95588.28;;;3.73;100.00
25080;BME280;13071;48.868;9.996;2022-11-21T03:21:13;95588.59;;;3.72;100.00
25080;BME280;13071;48.868;9.996;2022-11-21T03:23:40;95588.28;;;3.65;100.00
25080;BME280;13071;48.868;9.996;2022-11-21T03:26:07;95580.72;;;3.75;100.00
25080;BME280;13071;48.868;9.996;2022-11-21T03:28:33;95578.72;;;3.89;100.00
25080;BME280;13071;48.868;9.996;2022-11-21T03:31:01;95583.91;;;3.86;100.00
25080;BME280;13071;48.868;9.996;2022-11-21T03:33:28;95569.28;;;4.01;100.00
25080;BME280;13071;48.868;9.996;2022-11-21T03:35:54;95574.28;;;3.85;100.00
25080;BME280;13071;48.868;9.996;2022-11-21T03:38:21;95565.19;;;3.95;100.00
25080;BME280;13071;48.868;9.996;2022-11-21T03:40:47;95565.81;;;3.91;100.00
25080;BME280;13071;48.868;9.996;2022-11-21T03:43:14;95562.19;;;3.96;100.00
25080;BME280;13071;48.868;9.996;2022-11-21T03:45:41;95555.75;;;3.88;100.00
25080;BME280;13071;48.868;9.996;2022-11-21T03:48:09;95557.16;;;3.95;100.00
25080;BME280;13071;48.868;9.996;2022-11-21T03:50:35;95554.50;;;3.95;100.00
25080;BME280;13071;48.868;9.996;2022-11-21T03:53:02;95551.31;;;3.92;100.00
25080;BME280;13071;48.868;9.996;2022-11-21T03:55:28;95552.91;;;4.11;100.00
25080;BME280;13071;48.868;9.996;2022-11-21T03:57:55;95546.75;;;4.10;100.00
25080;BME280;13071;48.868;9.996;2022-11-21T04:00:22;95557.34;;;4.32;100.00
25080;BME280;13071;48.868;9.996;2022-11-21T04:02:48;95557.97;;;4.21;100.00
25080;BME280;13071;48.868;9.996;2022-11-21T04:05:16;95555.13;;;4.34;100.00
25080;BME280;13071;48.868;9.996;2022-11-21T04:07:44;95555.28;;;4.29;100.00
25080;BME280;13071;48.868;9.996;2022-11-21T04:10:10;95547.88;;;4.26;100.00
25080;BME280;13071;48.868;9.996;2022-11-21T04:12:37;95552.28;;;4.31;100.00
25080;BME280;13071;48.868;9.996;2022-11-21T04:15:05;95548.19;;;4.25;100.00
25080;BME280;13071;48.868;9.996;2022-11-21T04:17:31;95560.31;;;4.31;100.00
25080;BME280;13071;48.868;9.996;2022-11-21T04:19:58;95548.19;;;4.25;100.00
25080;BME280;13071;48.868;9.996;2022-11-21T04:22:26;95550.53;;;4.35;100.00
25080;BME280;13071;48.868;9.996;2022-11-21T04:24:52;95555.13;;;4.43;100.00
25080;BME280;13071;48.868;9.996;2022-11-21T04:27:19;95553.56;;;4.42;100.00
25080;BME280;13071;48.868;9.996;2022-11-21T04:29:46;95555.75;;;4.31;100.00
25080;BME280;13071;48.868;9.996;2022-11-21T04:32:12;95547.25;;;4.38;100.00
25080;BME280;13071;48.868;9.996;2022-11-21T04:34:39;95550.06;;;4.50;100.00
25080;BME280;13071;48.868;9.996;2022-11-21T04:37:06;95546.59;;;4.41;100.00
25080;BME280;13071;48.868;9.996;2022-11-21T04:39:34;95553.69;;;4.54;100.00
25080;BME280;13071;48.868;9.996;2022-11-21T04:42:01;95539.06;;;4.43;100.00
25080;BME280;13071;48.868;9.996;2022-11-21T04:44:27;95541.56;;;4.40;100.00
25080;BME280;13071;48.868;9.996;2022-11-21T04:46:54;95540.44;;;4.49;100.00
25080;BME280;13071;48.868;9.996;2022-11-21T04:49:20;95542.97;;;4.54;100.00
25080;BME280;13071;48.868;9.996;2022-11-21T04:51:47;95541.41;;;4.45;100.00
25080;BME280;13071;48.868;9.996;2022-11-21T04:54:14;95542.50;;;4.35;100.00
25080;BME280;13071;48.868;9.996;2022-11-21T04:56:41;95543.00;;;4.37;100.00
25080;BME280;13071;48.868;9.996;2022-11-21T04:59:08;95539.06;;;4.43;100.00
25080;BME280;13071;48.868;9.996;2022-11-21T05:01:36;95533.81;;;4.64;100.00
25080;BME280;13071;48.868;9.996;2022-11-21T05:04:03;95534.94;;;4.63;100.00
25080;BME280;13071;48.868;9.996;2022-11-21T05:06:29;95536.50;;;4.55;100.00
25080;BME280;13071;48.868;9.996;2022-11-21T05:08:56;95533.66;;;4.60;100.00
25080;BME280;13071;48.868;9.996;2022-11-21T05:11:23;95532.09;;;4.51;100.00
25080;BME280;13071;48.868;9.996;2022-11-21T05:14:08;95525.34;;;4.53;100.00
25080;BME280;13071;48.868;9.996;2022-11-21T05:16:34;95532.72;;;4.39;100.00
25080;BME280;13071;48.868;9.996;2022-11-21T05:19:01;95529.47;;;4.33;100.00
25080;BME280;13071;48.868;9.996;2022-11-21T05:21:28;95537.00;;;4.40;100.00
25080;BME280;13071;48.868;9.996;2022-11-21T05:23:54;95539.34;;;4.50;100.00
25080;BME280;13071;48.868;9.996;2022-11-21T05:26:21;95524.09;;;4.42;100.00
25080;BME280;13071;48.868;9.996;2022-11-21T05:28:48;95520.44;;;4.47;100.00
25080;BME280;13071;48.868;9.996;2022-11-21T05:31:16;95519.34;;;4.48;100.00
25080;BME280;13071;48.868;9.996;2022-11-21T05:33:42;95526.75;;;4.51;100.00
25080;BME280;13071;48.868;9.996;2022-11-21T05:36:09;95536.84;;;4.45;100.00
25080;BME280;13071;48.868;9.996;2022-11-21T05:38:35;95528.00;;;4.45;100.00
25080;BME280;13071;48.868;9.996;2022-11-21T05:41:02;95526.13;;;4.45;100.00
25080;BME280;13071;48.868;9.996;2022-11-21T05:43:29;95539.06;;;4.43;100.00
25080;BME280;13071;48.868;9.996;2022-11-21T05:46:19;95535.41;;;4.39;100.00
25080;BME280;13071;48.868;9.996;2022-11-21T05:48:46;95539.53;;;4.37;100.00
25080;BME280;13071;48.868;9.996;2022-11-21T05:51:14;95543.63;;;4.34;100.00
25080;BME280;13071;48.868;9.996;2022-11-21T05:53:41;95549.59;;;4.31;100.00
25080;BME280;13071;48.868;9.996;2022-11-21T05:56:10;95546.16;;;4.48;100.00
25080;BME280;13071;48.868;9.996;2022-11-21T05:58:37;95553.38;;;4.47;100.00
25080;BME280;13071;48.868;9.996;2022-11-21T06:01:05;95550.56;;;4.52;100.00
25080;BME280;13071;48.868;9.996;2022-11-21T06:03:35;95553.56;;;4.42;100.00
25080;BME280;13071;48.868;9.996;2022-11-21T06:06:02;95554.78;;;4.45;100.00
25080;BME280;13071;48.868;9.996;2022-11-21T06:08:32;95550.38;;;4.40;100.00
25080;BME280;13071;48.868;9.996;2022-11-21T06:10:59;95555.91;;;4.44;100.00
25080;BME280;13071;48.868;9.996;2022-11-21T06:13:26;95554.97;;;4.40;100.00
25080;BME280;13071;48.868;9.996;2022-11-21T06:15:57;95553.56;;;4.33;100.00
25080;BME280;13071;48.868;9.996;2022-11-21T06:18:24;95553.41;;;4.39;100.00
25080;BME280;13071;48.868;9.996;2022-11-21T06:20:52;95563.00;;;4.31;100.00
25080;BME280;13071;48.868;9.996;2022-11-21T06:23:19;95560.47;;;4.34;100.00
25080;BME280;13071;48.868;9.996;2022-11-21T06:25:46;95566.63;;;4.35;100.00
25080;BME280;13071;48.868;9.996;2022-11-21T06:28:12;95564.28;;;4.33;100.00
25080;BME280;13071;48.868;9.996;2022-11-21T06:30:39;95565.38;;;4.32;100.00
25080;BME280;13071;48.868;9.996;2022-11-21T06:33:06;95556.09;;;4.39;100.00
25080;BME280;13071;48.868;9.996;2022-11-21T06:35:36;95566.47;;;4.31;100.00
25080;BME280;13071;48.868;9.996;2022-11-21T06:38:04;95558.28;;;4.37;100.00
25080;BME280;13071;48.868;9.996;2022-11-21T06:40:31;95553.88;;;4.32;100.00
25080;BME280;13071;48.868;9.996;2022-11-21T06:42:57;95554.66;;;4.32;100.00
25080;BME280;13071;48.868;9.996;2022-11-21T06:45:24;95565.38;;;4.32;100.00
25080;BME280;13071;48.868;9.996;2022-11-21T06:47:51;95561.09;;;4.40;100.00
25080;BME280;13071;48.868;9.996;2022-11-21T06:50:17;95570.09;;;4.18;100.00
25080;BME280;13071;48.868;9.996;2022-11-21T06:52:44;95570.72;;;4.15;100.00
25080;BME280;13071;48.868;9.996;2022-11-21T06:55:12;95568.53;;;4.09;100.00
25080;BME280;13071;48.868;9.996;2022-11-21T06:57:40;95575.91;;;4.12;100.00
25080;BME280;13071;48.868;9.996;2022-11-21T07:00:07;95580.00;;;4.26;100.00
25080;BME280;13071;48.868;9.996;2022-11-21T07:02:34;95580.81;;;4.18;100.00
25080;BME280;13071;48.868;9.996;2022-11-21T07:05:01;95583.34;;;4.23;100.00
25080;BME280;13071;48.868;9.996;2022-11-21T07:07:27;95586.66;;;4.29;100.00
25080;BME280;13071;48.868;9.996;2022-11-21T07:09:54;95588.81;;;4.44;100.00
25080;BME280;13071;48.868;9.996;2022-11-21T07:12:22;95579.84;;;4.40;100.00
25080;BME280;13071;48.868;9.996;2022-11-21T07:15:07;95577.50;;;4.39;100.00
25080;BME280;13071;48.868;9.996;2022-11-21T07:17:33;95576.22;;;4.36;100.00
25080;BME280;13071;48.868;9.996;2022-11-21T07:20:00;95583.31;;;4.49;100.00
25080;BME280;13071;48.868;9.996;2022-11-21T07:22:26;95584.44;;;4.48;100.00
25080;BME280;13071;48.868;9.996;2022-11-21T07:24:53;95587.28;;;4.43;100.00
25080;BME280;13071;48.868;9.996;2022-11-21T07:27:21;95592.00;;;4.46;100.00
25080;BME280;13071;48.868;9.996;2022-11-21T07:29:48;95589.97;;;4.43;100.00
25080;BME280;13071;48.868;9.996;2022-11-21T07:32:16;95595.16;;;4.48;100.00
25080;BME280;13071;48.868;9.996;2022-11-21T07:34:42;95594.22;;;4.53;100.00
25080;BME280;13071;48.868;9.996;2022-11-21T07:37:09;95598.75;;;4.61;100.00
25080;BME280;13071;48.868;9.996;2022-11-21T07:39:35;95592.78;;;4.55;100.00
25080;BME280;13071;48.868;9.996;2022-11-21T07:42:02;95600.97;;;4.67;100.00
25080;BME280;13071;48.868;9.996;2022-11-21T07:44:30;95591.31;;;4.84;100.00
25080;BME280;13071;48.868;9.996;2022-11-21T07:46:57;95584.25;;;4.70;100.00
25080;BME280;13071;48.868;9.996;2022-11-21T07:49:23;95588.03;;;4.78;100.00
25080;BME280;13071;48.868;9.996;2022-11-21T07:51:50;95581.84;;;4.95;100.00
25080;BME280;13071;48.868;9.996;2022-11-21T07:54:16;95584.97;;;5.05;100.00
25080;BME280;13071;48.868;9.996;2022-11-21T07:56:43;95582.44;;;5.09;100.00
25080;BME280;13071;48.868;9.996;2022-11-21T07:59:10;95580.06;;;5.16;100.00
25080;BME280;13071;48.868;9.996;2022-11-21T08:01:38;95583.41;;;5.04;100.00
25080;BME280;13071;48.868;9.996;2022-11-21T08:04:04;95593.84;;;4.89;100.00
25080;BME280;13071;48.868;9.996;2022-11-21T08:06:31;95591.31;;;4.92;100.00
25080;BME280;13071;48.868;9.996;2022-11-21T08:08:57;95595.09;;;4.91;100.00
25080;BME280;13071;48.868;9.996;2022-11-21T08:11:24;95594.78;;;5.01;100.00
25080;BME280;13071;48.868;9.996;2022-11-21T08:13:51;95590.34;;;5.05;100.00
25080;BME280;13071;48.868;9.996;2022-11-21T08:16:17;95579.50;;;4.93;100.00
25080;BME280;13071;48.868;9.996;2022-11-21T08:18:45;95596.53;;;4.80;100.00
25080;BME280;13071;48.868;9.996;2022-11-21T08:21:13;95585.66;;;4.76;100.00
25080;BME280;13071;48.868;9.996;2022-11-21T08:23:40;95582.81;;;4.90;100.00
25080;BME280;13071;48.868;9.996;2022-11-21T08:26:07;95587.22;;;4.95;100.00
25080;BME280;13071;48.868;9.996;2022-11-21T08:28:35;95586.41;;;4.94;100.00
25080;BME280;13071;48.868;9.996;2022-11-21T08:31:02;95581.56;;;4.88;100.00
25080;BME280;13071;48.868;9.996;2022-11-21T08:33:30;95581.69;;;4.91;100.00
25080;BME280;13071;48.868;9.996;2022-11-21T08:35:58;95596.00;;;5.04;100.00
25080;BME280;13071;48.868;9.996;2022-11-21T08:38:24;95597.16;;;5.03;100.00
25080;BME280;13071;48.868;9.996;2022-11-21T08:40:51;95587.19;;;5.12;100.00
25080;BME280;13071;48.868;9.996;2022-11-21T08:43:38;95600.09;;;5.10;100.00
25080;BME280;13071;48.868;9.996;2022-11-21T08:46:04;95598.00;;;5.24;100.00
25080;BME280;13071;48.868;9.996;2022-11-21T08:48:31;95592.53;;;5.12;100.00
25080;BME280;13071;48.868;9.996;2022-11-21T08:50:59;95590.97;;;5.11;100.00
25080;BME280;13071;48.868;9.996;2022-11-21T08:53:25;95593.34;;;5.12;100.00
25080;BME280;13071;48.868;9.996;2022-11-21T08:55:52;95585.56;;;5.19;100.00
25080;BME280;13071;48.868;9.996;2022-11-21T08:58:19;95594.22;;;5.25;100.00
25080;BME280;13071;48.868;9.996;2022-11-21T09:00:46;95593.22;;;5.38;100.00
25080;BME280;13071;48.868;9.996;2022-11-21T09:03:12;95592.19;;;5.22;100.00
25080;BME280;13071;48.868;9.996;2022-11-21T09:05:39;95595.81;;;5.26;100.00
25080;BME280;13071;48.868;9.996;2022-11-21T09:08:07;95595.16;;;5.29;100.00
25080;BME280;13071;48.868;9.996;2022-11-21T09:10:33;95584.25;;;5.34;100.00
25080;BME280;13071;48.868;9.996;2022-11-21T09:13:00;95579.31;;;5.45;100.00
25080;BME280;13071;48.868;9.996;2022-11-21T09:15:27;95586.13;;;5.42;100.00
25080;BME280;13071;48.868;9.996;2022-11-21T09:18:11;95573.81;;;5.41;100.00
25080;BME280;13071;48.868;9.996;2022-11-21T09:20:39;95582.72;;;5.62;100.00
25080;BME280;13071;48.868;9.996;2022-11-21T09:23:09;95584.09;;;5.69;98.85
25080;BME280;13071;48.868;9.996;2022-11-21T09:25:36;95574.53;;;5.59;98.48
25080;BME280;13071;48.868;9.996;2022-11-21T09:28:04;95580.25;;;5.78;98.73
25080;BME280;13071;48.868;9.996;2022-11-21T09:30:31;95589.91;;;5.79;97.89
25080;BME280;13071;48.868;9.996;2022-11-21T09:32:59;95575.97;;;5.86;99.10
25080;BME280;13071;48.868;9.996;2022-11-21T09:35:26;95579.56;;;5.98;97.86
25080;BME280;13071;48.868;9.996;2022-11-21T09:37:53;95580.53;;;5.94;96.77
25080;BME280;13071;48.868;9.996;2022-11-21T09:40:22;95592.22;;;6.19;97.58
25080;BME280;13071;48.868;9.996;2022-11-21T09:43:04;95571.03;;;6.17;97.15
25080;BME280;13071;48.868;9.996;2022-11-21T09:45:33;95571.19;;;6.41;98.25
25080;BME280;13071;48.868;9.996;2022-11-21T09:48:07;95569.56;;;6.28;97.16
25080;BME280;13071;48.868;9.996;2022-11-21T09:50:37;95573.81;;;6.50;95.59
25080;BME280;13071;48.868;9.996;2022-11-21T09:53:06;95572.91;;;6.46;94.35
25080;BME280;13071;48.868;9.996;2022-11-21T09:55:41;95573.53;;;6.43;95.50
25080;BME280;13071;48.868;9.996;2022-11-21T09:58:17;95567.56;;;6.58;96.27
25080;BME280;13071;48.868;9.996;2022-11-21T10:00:45;95566.78;;;6.58;93.65
25080;BME280;13071;48.868;9.996;2022-11-21T10:03:12;95567.69;;;6.62;93.67
25080;BME280;13071;48.868;9.996;2022-11-21T10:05:42;95560.56;;;6.66;90.14
25080;BME280;13071;48.868;9.996;2022-11-21T10:08:26;95559.28;;;6.51;87.88
25080;BME280;13071;48.868;9.996;2022-11-21T10:10:59;95555.63;;;6.47;88.76
25080;BME280;13071;48.868;9.996;2022-11-21T10:13:41;95553.03;;;6.59;88.27
25080;BME280;13071;48.868;9.996;2022-11-21T10:16:17;95553.13;;;6.63;87.66
25080;BME280;13071;48.868;9.996;2022-11-21T10:19:07;95549.09;;;6.89;88.90
25080;BME280;13071;48.868;9.996;2022-11-21T10:21:54;95541.66;;;7.19;87.37
25080;BME280;13071;48.868;9.996;2022-11-21T10:24:38;95530.91;;;7.19;88.32
25080;BME280;13071;48.868;9.996;2022-11-21T10:27:12;95539.97;;;7.27;87.85
25080;BME280;13071;48.868;9.996;2022-11-21T10:29:43;95529.53;;;7.25;86.84
25080;BME280;13071;48.868;9.996;2022-11-21T10:32:18;95522.13;;;7.22;85.78
25080;BME280;13071;48.868;9.996;2022-11-21T10:34:48;95519.78;;;7.21;84.84
25080;BME280;13071;48.868;9.996;2022-11-21T10:37:29;95513.28;;;7.10;83.83
25080;BME280;13071;48.868;9.996;2022-11-21T10:40:06;95517.88;;;7.09;84.17
25080;BME280;13071;48.868;9.996;2022-11-21T10:42:39;95513.66;;;6.87;84.26
25080;BME280;13071;48.868;9.996;2022-11-21T10:45:11;95516.34;;;6.87;85.44
25080;BME280;13071;48.868;9.996;2022-11-21T10:47:46;95502.34;;;6.82;85.92
25080;BME280;13071;48.868;9.996;2022-11-21T10:50:28;95505.81;;;6.82;84.25
25080;BME280;13071;48.868;9.996;2022-11-21T10:53:05;95495.31;;;6.89;85.60
25080;BME280;13071;48.868;9.996;2022-11-21T10:55:58;95478.59;;;6.84;84.47
25080;BME280;13071;48.868;9.996;2022-11-21T10:58:34;95479.50;;;6.88;84.42
25080;BME280;13071;48.868;9.996;2022-11-21T11:01:02;95478.72;;;6.87;82.78
25080;BME280;13071;48.868;9.996;2022-11-21T11:03:29;95468.63;;;6.84;82.91
25080;BME280;13071;48.868;9.996;2022-11-21T11:05:56;95463.16;;;6.93;83.56
25080;BME280;13071;48.868;9.996;2022-11-21T11:08:23;95469.09;;;7.23;84.86
25080;BME280;13071;48.868;9.996;2022-11-21T11:11:03;95471.03;;;7.34;81.97
25080;BME280;13071;48.868;9.996;2022-11-21T11:13:32;95460.91;;;7.31;83.19
25080;BME280;13071;48.868;9.996;2022-11-21T11:16:09;95460.22;;;7.71;83.79
25080;BME280;13071;48.868;9.996;2022-11-21T11:18:45;95460.19;;;7.83;83.72
25080;BME280;13071;48.868;9.996;2022-11-21T11:21:18;95450.25;;;7.99;83.85
25080;BME280;13071;48.868;9.996;2022-11-21T11:23:47;95451.91;;;8.16;84.43
25080;BME280;13071;48.868;9.996;2022-11-21T11:26:20;95437.41;;;8.33;83.16
25080;BME280;13071;48.868;9.996;2022-11-21T11:28:48;95441.94;;;8.44;82.76
25080;BME280;13071;48.868;9.996;2022-11-21T11:31:15;95425.75;;;8.16;80.89
25080;BME280;13071;48.868;9.996;2022-11-21T11:33:50;95430.75;;;8.02;80.87
25080;BME280;13071;48.868;9.996;2022-11-21T11:36:27;95426.13;;;8.03;80.76
25080;BME280;13071;48.868;9.996;2022-11-21T11:38:58;95409.44;;;7.85;81.60
25080;BME280;13071;48.868;9.996;2022-11-21T11:41:40;95416.47;;;7.74;81.15
25080;BME280;13071;48.868;9.996;2022-11-21T11:44:40;95409.94;;;7.75;81.07
25080;BME280;13071;48.868;9.996;2022-11-21T11:47:33;95407.75;;;7.53;81.91
25080;BME280;13071;48.868;9.996;2022-11-21T11:50:09;95400.00;;;7.51;83.77
25080;BME280;13071;48.868;9.996;2022-11-21T11:52:42;95399.91;;;7.35;84.13
25080;BME280;13071;48.868;9.996;2022-11-21T11:55:18;95395.63;;;7.47;82.61
25080;BME280;13071;48.868;9.996;2022-11-21T11:57:47;95392.38;;;7.93;81.83
25080;BME280;13071;48.868;9.996;2022-11-21T12:00:27;95384.53;;;8.16;82.13
25080;BME280;13071;48.868;9.996;2022-11-21T12:03:00;95377.00;;;8.21;82.08
25080;BME280;13071;48.868;9.996;2022-11-21T12:05:29;95372.91;;;8.28;81.01
25080;BME280;13071;48.868;9.996;2022-11-21T12:08:07;95369.00;;;8.25;81.08
25080;BME280;13071;48.868;9.996;2022-11-21T12:10:40;95379.09;;;8.00;81.21
25080;BME280;13071;48.868;9.996;2022-11-21T12:13:24;95366.63;;;8.08;82.62
25080;BME280;13071;48.868;9.996;2022-11-21T12:15:53;95368.28;;;8.12;82.85
25080;BME280;13071;48.868;9.996;2022-11-21T12:18:29;95369.00;;;8.25;82.53
25080;BME280;13071;48.868;9.996;2022-11-21T12:21:01;95362.38;;;8.22;82.54
25080;BME280;13071;48.868;9.996;2022-11-21T12:23:31;95353.44;;;8.18;82.83
25080;BME280;13071;48.868;9.996;2022-11-21T12:26:08;95348.81;;;8.19;81.94
25080;BME280;13071;48.868;9.996;2022-11-21T12:28:50;95339.25;;;8.21;82.33
25080;BME280;13071;48.868;9.996;2022-11-21T12:31:26;95336.75;;;8.29;80.97
25080;BME280;13071;48.868;9.996;2022-11-21T12:34:05;95324.91;;;8.17;81.63
25080;BME280;13071;48.868;9.996;2022-11-21T12:36:40;95312.56;;;8.16;81.36
25080;BME280;13071;48.868;9.996;2022-11-21T12:42:39;95307.97;;;8.17;81.86
25080;BME280;13071;48.868;9.996;2022-11-21T12:45:42;95305.66;;;8.31;81.40
25080;BME280;13071;48.868;9.996;2022-11-21T12:48:19;95296.66;;;8.27;81.14
25080;BME280;13071;48.868;9.996;2022-11-21T12:51:27;95289.56;;;8.50;80.14
25080;BME280;13071;48.868;9.996;2022-11-21T12:54:38;95282.78;;;8.41;79.80
25080;BME280;13071;48.868;9.996;2022-11-21T12:57:09;95279.53;;;8.19;78.25
25080;BME280;13071;48.868;9.996;2022-11-21T12:59:45;95276.41;;;8.49;77.49
25080;BME280;13071;48.868;9.996;2022-11-21T13:02:23;95272.97;;;8.48;78.33
25080;BME280;13071;48.868;9.996;2022-11-21T13:04:53;95275.81;;;8.40;78.72
25080;BME280;13071;48.868;9.996;2022-11-21T13:07:23;95272.00;;;8.41;77.47
25080;BME280;13071;48.868;9.996;2022-11-21T13:09:52;95268.09;;;8.38;78.16
25080;BME280;13071;48.868;9.996;2022-11-21T13:12:25;95275.28;;;8.50;75.40
25080;BME280;13071;48.868;9.996;2022-11-21T13:15:02;95274.41;;;6.91;87.19
25080;BME280;13071;48.868;9.996;2022-11-21T13:17:40;95273.22;;;6.52;90.29
25080;BME280;13071;48.868;9.996;2022-11-21T13:20:18;95274.91;;;6.32;90.07